createdAt,value
2023-09-12T00:00:46.717Z,1008.53
2023-09-12T00:01:46.836Z,1008.68
2023-09-12T00:02:46.783Z,1008.84
2023-09-12T00:03:46.887Z,1008.93
2023-09-12T00:04:46.746Z,1008.83
2023-09-12T00:05:46.749Z,1008.76
2023-09-12T00:06:46.654Z,1008.84
2023-09-12T00:07:46.724Z,1008.90
2023-09-12T00:08:46.638Z,1008.83
2023-09-12T00:09:46.705Z,1008.85
2023-09-12T00:10:46.615Z,1008.95
2023-09-12T00:11:46.680Z,1008.96
2023-09-12T00:12:46.592Z,1008.98
2023-09-12T00:13:46.658Z,1009.11
2023-09-12T00:14:46.571Z,1009.16
2023-09-12T00:15:46.723Z,1009.21
2023-09-12T00:16:46.549Z,1009.15
2023-09-12T00:17:46.660Z,1009.07
2023-09-12T00:18:46.775Z,1008.99
2023-09-12T00:19:46.596Z,1008.96
2023-09-12T00:20:46.506Z,1008.99
2023-09-12T00:21:46.581Z,1008.99
2023-09-12T00:22:46.604Z,1009.02
2023-09-12T00:23:46.485Z,1008.98
2023-09-12T00:24:46.535Z,1008.86
2023-09-12T00:25:46.466Z,1008.82
2023-09-12T00:26:46.507Z,1008.79
2023-09-12T00:27:46.441Z,1008.87
2023-09-12T00:28:46.504Z,1008.90
2023-09-12T00:29:46.423Z,1008.85
2023-09-12T00:30:46.461Z,1008.80
2023-09-12T00:31:46.457Z,1008.76
2023-09-12T00:32:46.466Z,1008.68
2023-09-12T00:33:46.454Z,1008.64
2023-09-12T00:34:46.417Z,1008.52
2023-09-12T00:35:46.352Z,1008.43
2023-09-12T00:36:46.400Z,1008.35
2023-09-12T00:37:46.338Z,1008.37
2023-09-12T00:38:46.385Z,1008.40
2023-09-12T00:39:46.326Z,1008.46
2023-09-12T00:40:46.360Z,1008.48
2023-09-12T00:41:46.298Z,1008.53
2023-09-12T00:42:46.330Z,1008.60
2023-09-12T00:43:46.271Z,1008.60
2023-09-12T00:44:46.307Z,1008.61
2023-09-12T00:45:46.365Z,1008.61
2023-09-12T00:46:46.307Z,1008.62
2023-09-12T00:47:46.281Z,1008.57
2023-09-12T00:48:46.503Z,1008.59
2023-09-12T00:49:50.247Z,1008.61
2023-09-12T00:50:46.248Z,1008.70
2023-09-12T00:51:46.184Z,1008.81
2023-09-12T00:52:46.224Z,1008.91
2023-09-12T00:53:46.167Z,1009.05
2023-09-12T00:54:46.202Z,1009.10
2023-09-12T00:55:46.141Z,1009.19
2023-09-12T00:56:46.182Z,1009.20
2023-09-12T00:57:46.122Z,1009.31
2023-09-12T00:58:46.162Z,1009.37
2023-09-12T00:59:46.094Z,1009.47
2023-09-12T01:00:46.141Z,1009.52
2023-09-12T01:01:46.112Z,1009.55
2023-09-12T01:02:46.187Z,1009.61
2023-09-12T01:03:46.103Z,1009.62
2023-09-12T01:04:46.129Z,1009.56
2023-09-12T01:05:46.029Z,1009.50
2023-09-12T01:06:46.065Z,1009.45
2023-09-12T01:07:46.004Z,1009.37
2023-09-12T01:08:46.054Z,1009.29
2023-09-12T01:09:45.986Z,1009.16
2023-09-12T01:10:46.036Z,1009.08
2023-09-12T01:11:45.961Z,1009.01
2023-09-12T01:12:45.999Z,1009.04
2023-09-12T01:13:45.940Z,1008.96
2023-09-12T01:14:45.989Z,1008.75
2023-09-12T01:15:46.024Z,1008.52
2023-09-12T01:16:45.980Z,1008.33
2023-09-12T01:17:45.922Z,1008.20
2023-09-12T01:18:46.300Z,1008.11
2023-09-12T01:19:45.873Z,1008.10
2023-09-12T01:20:45.917Z,1008.19
2023-09-12T01:21:45.856Z,1008.28
2023-09-12T01:22:45.893Z,1008.40
2023-09-12T01:23:45.870Z,1008.39
2023-09-12T01:24:45.887Z,1008.43
2023-09-12T01:25:45.814Z,1008.44
2023-09-12T01:26:45.850Z,1008.45
2023-09-12T01:27:45.786Z,1008.46
2023-09-12T01:28:45.996Z,1008.50
2023-09-12T01:29:45.767Z,1008.54
2023-09-12T01:30:45.858Z,1008.50
2023-09-12T01:31:45.782Z,1008.46
2023-09-12T01:32:45.814Z,1008.46
2023-09-12T01:33:45.791Z,1008.39
2023-09-12T01:34:45.764Z,1008.34
2023-09-12T01:35:45.698Z,1008.28
2023-09-12T01:36:45.739Z,1008.26
2023-09-12T01:37:45.680Z,1008.14
2023-09-12T01:38:45.780Z,1008.07
2023-09-12T01:39:45.673Z,1007.99
2023-09-12T01:40:45.699Z,1008.00
2023-09-12T01:41:45.640Z,1007.98
2023-09-12T01:42:45.749Z,1008.00
2023-09-12T01:43:45.612Z,1008.00
2023-09-12T01:44:45.671Z,1007.95
2023-09-12T01:45:45.651Z,1007.91
2023-09-12T01:46:45.644Z,1007.93
2023-09-12T01:47:45.625Z,1007.96
2023-09-12T01:48:46.095Z,1008.01
2023-09-12T01:49:45.549Z,1008.02
2023-09-12T01:50:45.604Z,1008.07
2023-09-12T01:51:45.526Z,1008.10
2023-09-12T01:52:45.648Z,1008.17
2023-09-12T01:53:45.504Z,1008.15
2023-09-12T01:54:45.600Z,1008.17
2023-09-12T01:55:45.485Z,1008.16
2023-09-12T01:56:45.536Z,1008.14
2023-09-12T01:57:45.460Z,1008.13
2023-09-12T01:58:45.505Z,1008.07
2023-09-12T01:59:45.441Z,1008.03
2023-09-12T02:00:45.546Z,1007.97
2023-09-12T02:01:45.440Z,1007.92
2023-09-12T02:02:45.489Z,1007.89
2023-09-12T02:03:45.448Z,1007.87
2023-09-12T02:04:45.437Z,1007.79
2023-09-12T02:05:45.427Z,1007.74
2023-09-12T02:06:45.429Z,1007.71
2023-09-12T02:07:45.351Z,1007.70
2023-09-12T02:08:45.482Z,1007.69
2023-09-12T02:09:45.329Z,1007.64
2023-09-12T02:10:45.583Z,1007.62
2023-09-12T02:11:45.306Z,1007.58
2023-09-12T02:12:45.354Z,1007.50
2023-09-12T02:13:45.295Z,1007.51
2023-09-12T02:14:45.345Z,1007.58
2023-09-12T02:15:45.368Z,1007.55
2023-09-12T02:16:45.404Z,1007.55
2023-09-12T02:17:45.274Z,1007.58
2023-09-12T02:18:45.776Z,1007.63
2023-09-12T02:19:45.224Z,1007.61
2023-09-12T02:20:45.292Z,1007.62
2023-09-12T02:21:45.232Z,1007.64
2023-09-12T02:22:45.242Z,1007.66
2023-09-12T02:23:45.180Z,1007.65
2023-09-12T02:24:45.254Z,1007.63
2023-09-12T02:25:45.165Z,1007.62
2023-09-12T02:26:45.209Z,1007.64
2023-09-12T02:27:45.182Z,1007.62
2023-09-12T02:28:45.293Z,1007.63
2023-09-12T02:29:45.118Z,1007.63
2023-09-12T02:30:45.178Z,1007.64
2023-09-12T02:31:45.193Z,1007.70
2023-09-12T02:32:45.145Z,1007.71
2023-09-12T02:33:45.129Z,1007.75
2023-09-12T02:34:45.113Z,1007.80
2023-09-12T02:35:45.057Z,1007.86
2023-09-12T02:36:45.133Z,1007.95
2023-09-12T02:37:45.033Z,1007.97
2023-09-12T02:38:45.148Z,1008.00
2023-09-12T02:39:45.104Z,1008.00
2023-09-12T02:40:45.050Z,1008.03
2023-09-12T02:41:44.987Z,1008.01
2023-09-12T02:42:45.100Z,1007.96
2023-09-12T02:43:44.973Z,1007.89
2023-09-12T02:44:45.016Z,1007.85
2023-09-12T02:45:44.977Z,1007.85
2023-09-12T02:46:45.017Z,1007.86
2023-09-12T02:47:44.944Z,1007.84
2023-09-12T02:48:45.256Z,1007.84
2023-09-12T02:49:44.906Z,1007.84
2023-09-12T02:50:44.945Z,1007.82
2023-09-12T02:51:44.898Z,1007.83
2023-09-12T02:52:44.925Z,1007.84
2023-09-12T02:53:44.858Z,1007.77
2023-09-12T02:54:45.027Z,1007.70
2023-09-12T02:55:44.847Z,1007.68
2023-09-12T02:56:44.879Z,1007.65
2023-09-12T02:57:44.822Z,1007.62
2023-09-12T02:58:45.050Z,1007.61
2023-09-12T02:59:44.791Z,1007.59
2023-09-12T03:00:44.900Z,1007.57
2023-09-12T03:01:44.770Z,1007.61
2023-09-12T03:02:44.853Z,1007.60
2023-09-12T03:03:44.868Z,1007.62
2023-09-12T03:04:44.796Z,1007.62
2023-09-12T03:05:44.727Z,1007.65
2023-09-12T03:06:44.810Z,1007.65
2023-09-12T03:07:44.706Z,1007.67
2023-09-12T03:08:45.073Z,1007.68
2023-09-12T03:09:44.683Z,1007.65
2023-09-12T03:10:44.724Z,1007.71
2023-09-12T03:11:44.662Z,1007.70
2023-09-12T03:12:44.747Z,1007.71
2023-09-12T03:13:44.781Z,1007.71
2023-09-12T03:14:44.619Z,1007.74
2023-09-12T03:15:44.758Z,1007.80
2023-09-12T03:16:44.622Z,1007.86
2023-09-12T03:17:44.684Z,1007.89
2023-09-12T03:18:44.911Z,1007.92
2023-09-12T03:19:44.653Z,1007.93
2023-09-12T03:20:44.553Z,1007.94
2023-09-12T03:21:44.668Z,1007.99
2023-09-12T03:22:44.532Z,1007.94
2023-09-12T03:23:44.618Z,1007.92
2023-09-12T03:24:44.602Z,1007.89
2023-09-12T03:25:44.586Z,1007.86
2023-09-12T03:26:44.490Z,1007.84
2023-09-12T03:27:44.589Z,1007.84
2023-09-12T03:28:44.711Z,1007.86
2023-09-12T03:29:44.532Z,1007.84
2023-09-12T03:30:44.594Z,1007.88
2023-09-12T03:31:44.569Z,1007.87
2023-09-12T03:32:44.464Z,1007.90
2023-09-12T03:33:44.520Z,1007.90
2023-09-12T03:34:44.416Z,1007.91
2023-09-12T03:35:44.451Z,1007.91
2023-09-12T03:36:44.433Z,1007.90
2023-09-12T03:37:44.457Z,1007.86
2023-09-12T03:38:44.624Z,1007.89
2023-09-12T03:39:44.440Z,1007.83
2023-09-12T03:40:44.353Z,1007.77
2023-09-12T03:41:44.412Z,1007.71
2023-09-12T03:42:44.364Z,1007.70
2023-09-12T03:43:44.393Z,1007.68
2023-09-12T03:44:44.312Z,1007.61
2023-09-12T03:45:44.392Z,1007.62
2023-09-12T03:46:44.356Z,1007.59
2023-09-12T03:47:44.382Z,1007.56
2023-09-12T03:48:44.655Z,1007.54
2023-09-12T03:49:44.306Z,1007.54
2023-09-12T03:50:44.247Z,1007.53
2023-09-12T03:51:44.356Z,1007.51
2023-09-12T03:52:44.223Z,1007.49
2023-09-12T03:53:44.266Z,1007.45
2023-09-12T03:54:44.230Z,1007.34
2023-09-12T03:55:44.352Z,1007.35
2023-09-12T03:56:46.264Z,1007.30
2023-09-12T03:57:44.288Z,1007.30
2023-09-12T03:58:44.571Z,1007.35
2023-09-12T03:59:44.212Z,1007.34
2023-09-12T04:00:44.188Z,1007.35
2023-09-12T04:01:44.227Z,1007.40
2023-09-12T04:02:44.158Z,1007.41
2023-09-12T04:03:44.272Z,1007.43
2023-09-12T04:04:44.193Z,1007.38
2023-09-12T04:05:44.139Z,1007.44
2023-09-12T04:06:44.126Z,1007.43
2023-09-12T04:07:44.117Z,1007.38
2023-09-12T04:08:44.315Z,1007.40
2023-09-12T04:09:44.128Z,1007.44
2023-09-12T04:10:44.040Z,1007.38
2023-09-12T04:11:47.454Z,1007.38
2023-09-12T04:12:44.041Z,1007.36
2023-09-12T04:13:44.046Z,1007.33
2023-09-12T04:14:43.983Z,1007.33
2023-09-12T04:15:44.152Z,1007.26
2023-09-12T04:16:44.052Z,1007.23
2023-09-12T04:17:44.034Z,1007.22
2023-09-12T04:18:44.145Z,1007.24
2023-09-12T04:19:43.984Z,1007.19
2023-09-12T04:20:43.921Z,1007.20
2023-09-12T04:21:44.003Z,1007.19
2023-09-12T04:22:43.924Z,1007.21
2023-09-12T04:23:43.938Z,1007.21
2023-09-12T04:24:43.902Z,1007.19
2023-09-12T04:25:43.916Z,1007.22
2023-09-12T04:26:43.859Z,1007.24
2023-09-12T04:27:43.951Z,1007.25
2023-09-12T04:28:44.014Z,1007.30
2023-09-12T04:29:43.911Z,1007.34
2023-09-12T04:30:45.941Z,1007.39
2023-09-12T04:31:43.902Z,1007.40
2023-09-12T04:32:43.814Z,1007.48
2023-09-12T04:33:43.873Z,1007.42
2023-09-12T04:34:43.775Z,1007.42
2023-09-12T04:35:43.812Z,1007.44
2023-09-12T04:36:43.805Z,1007.41
2023-09-12T04:37:43.797Z,1007.40
2023-09-12T04:38:43.900Z,1007.45
2023-09-12T04:39:43.807Z,1007.42
2023-09-12T04:40:43.706Z,1007.37
2023-09-12T04:41:43.754Z,1007.41
2023-09-12T04:42:43.733Z,1007.43
2023-09-12T04:43:43.678Z,1007.44
2023-09-12T04:44:43.617Z,1007.45
2023-09-12T04:45:43.747Z,1007.48
2023-09-12T04:46:44.712Z,1007.54
2023-09-12T04:47:43.657Z,1007.54
2023-09-12T04:48:43.875Z,1007.57
2023-09-12T04:49:43.615Z,1007.58
2023-09-12T04:50:43.554Z,1007.62
2023-09-12T04:51:43.655Z,1007.59
2023-09-12T04:52:43.520Z,1007.65
2023-09-12T04:53:43.571Z,1007.67
2023-09-12T04:54:43.533Z,1007.68
2023-09-12T04:55:43.543Z,1007.71
2023-09-12T04:56:43.475Z,1007.72
2023-09-12T04:57:43.748Z,1007.71
2023-09-12T04:58:43.692Z,1007.72
2023-09-12T04:59:43.519Z,1007.72
2023-09-12T05:00:43.488Z,1007.77
2023-09-12T05:01:43.506Z,1007.80
2023-09-12T05:02:43.478Z,1007.83
2023-09-12T05:03:43.493Z,1007.84
2023-09-12T05:04:43.418Z,1007.83
2023-09-12T05:05:43.430Z,1007.87
2023-09-12T05:06:43.517Z,1007.86
2023-09-12T05:07:43.415Z,1007.82
2023-09-12T05:08:43.616Z,1007.89
2023-09-12T05:09:43.413Z,1007.91
2023-09-12T05:10:43.322Z,1007.89
2023-09-12T05:11:43.361Z,1007.87
2023-09-12T05:12:43.329Z,1007.91
2023-09-12T05:13:43.352Z,1007.93
2023-09-12T05:14:43.278Z,1007.95
2023-09-12T05:15:43.446Z,1008.00
2023-09-12T05:16:43.325Z,1008.07
2023-09-12T05:17:43.342Z,1008.02
2023-09-12T05:18:43.524Z,1008.05
2023-09-12T05:19:43.276Z,1008.04
2023-09-12T05:20:43.212Z,1008.01
2023-09-12T05:21:43.271Z,1008.06
2023-09-12T05:22:43.196Z,1008.10
2023-09-12T05:23:43.231Z,1008.13
2023-09-12T05:24:43.205Z,1008.10
2023-09-12T05:25:43.222Z,1008.12
2023-09-12T05:26:44.474Z,1008.12
2023-09-12T05:27:43.238Z,1008.14
2023-09-12T05:28:43.303Z,1008.15
2023-09-12T05:29:43.171Z,1008.20
2023-09-12T05:30:43.203Z,1008.20
2023-09-12T05:31:43.188Z,1008.21
2023-09-12T05:32:43.147Z,1008.21
2023-09-12T05:33:43.173Z,1008.18
2023-09-12T05:34:43.079Z,1008.14
2023-09-12T05:35:43.114Z,1008.18
2023-09-12T05:36:43.071Z,1008.16
2023-09-12T05:37:43.090Z,1008.19
2023-09-12T05:38:43.173Z,1008.21
2023-09-12T05:39:43.169Z,1008.23
2023-09-12T05:40:43.001Z,1008.24
2023-09-12T05:41:43.050Z,1008.24
2023-09-12T05:42:43.056Z,1008.23
2023-09-12T05:43:43.027Z,1008.20
2023-09-12T05:44:42.956Z,1008.26
2023-09-12T05:45:43.040Z,1008.25
2023-09-12T05:46:42.968Z,1008.22
2023-09-12T05:47:43.002Z,1008.24
2023-09-12T05:48:43.214Z,1008.29
2023-09-12T05:49:42.971Z,1008.27
2023-09-12T05:50:42.893Z,1008.28
2023-09-12T05:51:42.983Z,1008.28
2023-09-12T05:52:42.890Z,1008.28
2023-09-12T05:53:42.923Z,1008.24
2023-09-12T05:54:43.461Z,1008.22
2023-09-12T05:55:42.907Z,1008.17
2023-09-12T05:56:42.849Z,1008.13
2023-09-12T05:57:42.891Z,1008.14
2023-09-12T05:58:43.313Z,1008.14
2023-09-12T05:59:42.845Z,1008.12
2023-09-12T06:00:42.937Z,1008.11
2023-09-12T06:01:42.860Z,1008.15
2023-09-12T06:02:42.791Z,1008.14
2023-09-12T06:03:42.928Z,1008.14
2023-09-12T06:04:42.807Z,1008.11
2023-09-12T06:05:42.785Z,1008.12
2023-09-12T06:06:42.751Z,1008.09
2023-09-12T06:07:42.775Z,1008.09
2023-09-12T06:08:42.929Z,1008.07
2023-09-12T06:09:42.791Z,1008.12
2023-09-12T06:10:42.690Z,1008.13
2023-09-12T06:11:42.716Z,1008.13
2023-09-12T06:12:42.684Z,1008.09
2023-09-12T06:13:42.696Z,1008.08
2023-09-12T06:14:42.631Z,1008.04
2023-09-12T06:15:43.009Z,1008.00
2023-09-12T06:16:42.638Z,1008.01
2023-09-12T06:17:42.677Z,1008.02
2023-09-12T06:18:42.964Z,1008.03
2023-09-12T06:19:42.629Z,1008.05
2023-09-12T06:20:42.567Z,1008.04
2023-09-12T06:21:42.727Z,1008.06
2023-09-12T06:22:42.545Z,1008.05
2023-09-12T06:23:42.664Z,1008.07
2023-09-12T06:24:42.569Z,1008.05
2023-09-12T06:25:42.579Z,1008.12
2023-09-12T06:26:42.511Z,1008.15
2023-09-12T06:27:42.585Z,1008.15
2023-09-12T06:28:42.748Z,1008.21
2023-09-12T06:29:42.523Z,1008.27
2023-09-12T06:30:42.547Z,1008.27
2023-09-12T06:31:42.627Z,1008.31
2023-09-12T06:32:42.476Z,1008.30
2023-09-12T06:33:42.509Z,1008.34
2023-09-12T06:34:42.421Z,1008.36
2023-09-12T06:35:43.174Z,1008.42
2023-09-12T06:36:42.533Z,1008.41
2023-09-12T06:37:42.443Z,1008.43
2023-09-12T06:38:42.591Z,1008.48
2023-09-12T06:39:42.445Z,1008.54
2023-09-12T06:40:42.395Z,1008.61
2023-09-12T06:41:42.406Z,1008.67
2023-09-12T06:42:42.355Z,1008.73
2023-09-12T06:43:42.384Z,1008.78
2023-09-12T06:44:42.313Z,1008.80
2023-09-12T06:45:42.421Z,1008.86
2023-09-12T06:46:42.333Z,1008.88
2023-09-12T06:47:42.390Z,1008.89
2023-09-12T06:48:42.558Z,1008.91
2023-09-12T06:49:42.325Z,1008.94
2023-09-12T06:50:43.668Z,1008.91
2023-09-12T06:51:42.317Z,1008.97
2023-09-12T06:52:42.249Z,1009.01
2023-09-12T06:53:42.522Z,1009.01
2023-09-12T06:54:42.246Z,1008.98
2023-09-12T06:55:42.259Z,1009.01
2023-09-12T06:56:42.187Z,1009.02
2023-09-12T06:57:42.261Z,1008.98
2023-09-12T06:58:42.423Z,1008.99
2023-09-12T06:59:42.203Z,1008.96
2023-09-12T07:00:42.198Z,1008.91
2023-09-12T07:01:42.231Z,1008.91
2023-09-12T07:02:42.173Z,1008.94
2023-09-12T07:03:42.428Z,1008.93
2023-09-12T07:04:42.109Z,1008.89
2023-09-12T07:05:42.143Z,1008.91
2023-09-12T07:06:42.105Z,1008.86
2023-09-12T07:07:42.144Z,1008.88
2023-09-12T07:08:42.064Z,1008.90
2023-09-12T07:09:42.144Z,1008.91
2023-09-12T07:10:42.071Z,1008.93
2023-09-12T07:11:42.074Z,1008.95
2023-09-12T07:12:42.031Z,1008.95
2023-09-12T07:13:43.963Z,1008.98
2023-09-12T07:14:41.994Z,1008.98
2023-09-12T07:15:42.123Z,1008.97
2023-09-12T07:16:42.058Z,1009.00
2023-09-12T07:17:42.054Z,1008.97
2023-09-12T07:18:42.050Z,1009.03
2023-09-12T07:19:43.091Z,1009.01
2023-09-12T07:20:41.935Z,1009.02
2023-09-12T07:21:42.040Z,1009.01
2023-09-12T07:22:41.901Z,1009.05
2023-09-12T07:23:42.242Z,1009.07
2023-09-12T07:24:41.905Z,1009.07
2023-09-12T07:25:41.939Z,1009.07
2023-09-12T07:26:41.859Z,1009.08
2023-09-12T07:27:41.963Z,1009.03
2023-09-12T07:28:41.837Z,1009.05
2023-09-12T07:29:41.890Z,1009.01
2023-09-12T07:30:42.039Z,1009.04
2023-09-12T07:31:41.986Z,1008.99
2023-09-12T07:32:41.818Z,1008.99
2023-09-12T07:33:42.154Z,1008.96
2023-09-12T07:34:41.772Z,1008.91
2023-09-12T07:35:41.811Z,1008.85
2023-09-12T07:36:41.871Z,1008.84
2023-09-12T07:37:41.807Z,1008.78
2023-09-12T07:38:41.934Z,1008.75
2023-09-12T07:39:41.830Z,1008.71
2023-09-12T07:40:41.712Z,1008.68
2023-09-12T07:41:41.754Z,1008.62
2023-09-12T07:42:41.747Z,1008.65
2023-09-12T07:43:42.142Z,1008.65
2023-09-12T07:44:41.698Z,1008.65
2023-09-12T07:45:41.752Z,1008.62
2023-09-12T07:46:41.654Z,1008.58
2023-09-12T07:47:41.713Z,1008.57
2023-09-12T07:48:41.683Z,1008.59
2023-09-12T07:49:41.663Z,1008.59
2023-09-12T07:50:41.601Z,1008.57
2023-09-12T07:51:41.718Z,1008.58
2023-09-12T07:52:41.780Z,1008.57
2023-09-12T07:53:41.888Z,1008.54
2023-09-12T07:54:41.586Z,1008.49
2023-09-12T07:55:41.606Z,1008.50
2023-09-12T07:56:41.522Z,1008.47
2023-09-12T07:57:41.643Z,1008.43
2023-09-12T07:58:41.502Z,1008.42
2023-09-12T07:59:41.581Z,1008.44
2023-09-12T08:00:41.546Z,1008.41
2023-09-12T08:01:41.602Z,1008.38
2023-09-12T08:02:41.490Z,1008.36
2023-09-12T08:03:42.067Z,1008.35
2023-09-12T08:04:41.618Z,1008.35
2023-09-12T08:05:41.536Z,1008.32
2023-09-12T08:06:55.757Z,1008.31
2023-09-12T08:07:41.517Z,1008.32
2023-09-12T08:08:43.321Z,1008.26
2023-09-12T08:09:42.533Z,1008.27
2023-09-12T08:10:41.429Z,1008.21
2023-09-12T08:11:41.366Z,1008.23
2023-09-12T08:12:41.427Z,1008.20
2023-09-12T08:13:42.323Z,1008.20
2023-09-12T08:14:41.390Z,1008.18
2023-09-12T08:15:41.721Z,1008.20
2023-09-12T08:16:41.405Z,1008.21
2023-09-12T08:17:41.352Z,1008.17
2023-09-12T08:18:41.409Z,1008.20
2023-09-12T08:19:41.292Z,1008.19
2023-09-12T08:20:41.321Z,1008.21
2023-09-12T08:21:41.287Z,1008.20
2023-09-12T08:22:41.301Z,1008.23
2023-09-12T08:23:41.492Z,1008.24
2023-09-12T08:24:41.580Z,1008.18
2023-09-12T08:25:41.210Z,1008.29
2023-09-12T08:26:41.259Z,1008.27
2023-09-12T08:27:41.242Z,1008.32
2023-09-12T08:28:41.437Z,1008.33
2023-09-12T08:29:41.183Z,1008.33
2023-09-12T08:30:41.262Z,1008.34
2023-09-12T08:31:41.173Z,1008.34
2023-09-12T08:32:41.212Z,1008.36
2023-09-12T08:33:41.241Z,1008.40
2023-09-12T08:34:41.220Z,1008.44
2023-09-12T08:35:41.117Z,1008.47
2023-09-12T08:36:41.167Z,1008.53
2023-09-12T08:37:41.184Z,1008.52
2023-09-12T08:38:41.128Z,1008.57
2023-09-12T08:39:41.148Z,1008.59
2023-09-12T08:40:41.105Z,1008.63
2023-09-12T08:41:41.205Z,1008.65
2023-09-12T08:42:41.056Z,1008.64
2023-09-12T08:43:41.436Z,1008.67
2023-09-12T08:44:41.016Z,1008.67
2023-09-12T08:45:41.100Z,1008.72
2023-09-12T08:46:40.986Z,1008.68
2023-09-12T08:47:41.177Z,1008.75
2023-09-12T08:48:41.095Z,1008.71
2023-09-12T08:49:41.024Z,1008.67
2023-09-12T08:50:40.958Z,1008.70
2023-09-12T08:51:41.025Z,1008.69
2023-09-12T08:52:48.839Z,1008.71
2023-09-12T08:53:41.407Z,1008.71
2023-09-12T08:54:41.042Z,1008.72
2023-09-12T08:55:41.071Z,1008.76
2023-09-12T08:56:40.870Z,1008.78
2023-09-12T08:57:40.979Z,1008.78
2023-09-12T08:58:40.848Z,1008.80
2023-09-12T08:59:40.919Z,1008.81
2023-09-12T09:00:40.866Z,1008.79
2023-09-12T09:01:41.124Z,1008.74
2023-09-12T09:02:40.821Z,1008.76
2023-09-12T09:03:41.186Z,1008.75
2023-09-12T09:04:40.780Z,1008.78
2023-09-12T09:05:40.902Z,1008.81
2023-09-12T09:06:40.839Z,1008.87
2023-09-12T09:07:40.862Z,1008.87
2023-09-12T09:08:40.755Z,1008.93
2023-09-12T09:09:40.844Z,1008.91
2023-09-12T09:10:50.824Z,1008.91
2023-09-12T09:11:40.806Z,1008.88
2023-09-12T09:12:40.723Z,1008.90
2023-09-12T09:13:41.227Z,1008.89
2023-09-12T09:14:40.681Z,1008.89
2023-09-12T09:15:40.809Z,1008.89
2023-09-12T09:16:40.705Z,1008.86
2023-09-12T09:17:45.128Z,1008.83
2023-09-12T09:18:40.696Z,1008.85
2023-09-12T09:19:40.695Z,1008.87
2023-09-12T09:20:40.610Z,1008.87
2023-09-12T09:21:40.721Z,1008.84
2023-09-12T09:22:40.589Z,1008.86
2023-09-12T09:23:40.896Z,1008.85
2023-09-12T09:24:40.653Z,1008.89
2023-09-12T09:25:40.633Z,1008.87
2023-09-12T09:26:40.562Z,1008.90
2023-09-12T09:27:40.647Z,1008.94
2023-09-12T09:28:40.528Z,1008.96
2023-09-12T09:29:40.588Z,1008.96
2023-09-12T09:30:40.530Z,1008.96
2023-09-12T09:31:40.606Z,1008.95
2023-09-12T09:32:40.570Z,1008.97
2023-09-12T09:33:40.830Z,1008.97
2023-09-12T09:34:40.464Z,1008.97
2023-09-12T09:35:40.539Z,1008.97
2023-09-12T09:36:40.516Z,1008.94
2023-09-12T09:37:40.556Z,1008.94
2023-09-12T09:38:40.415Z,1008.91
2023-09-12T09:39:40.524Z,1008.89
2023-09-12T09:40:40.401Z,1008.87
2023-09-12T09:41:40.462Z,1008.85
2023-09-12T09:42:40.462Z,1008.83
2023-09-12T09:43:40.861Z,1008.81
2023-09-12T09:44:40.355Z,1008.88
2023-09-12T09:45:40.519Z,1008.88
2023-09-12T09:46:40.358Z,1008.87
2023-09-12T09:47:40.436Z,1008.90
2023-09-12T09:48:40.392Z,1008.91
2023-09-12T09:49:40.386Z,1008.92
2023-09-12T09:50:40.291Z,1008.95
2023-09-12T09:51:40.608Z,1009.00
2023-09-12T09:52:40.263Z,1009.04
2023-09-12T09:53:40.671Z,1009.06
2023-09-12T09:54:40.257Z,1009.09
2023-09-12T09:55:40.328Z,1009.07
2023-09-12T09:56:40.226Z,1009.04
2023-09-12T09:57:40.707Z,1009.07
2023-09-12T09:58:40.200Z,1009.05
2023-09-12T09:59:40.274Z,1009.08
2023-09-12T10:00:40.192Z,1009.11
2023-09-12T10:01:40.280Z,1009.12
2023-09-12T10:02:40.236Z,1009.11
2023-09-12T10:03:40.383Z,1009.13
2023-09-12T10:05:39.194Z,1009.12
2023-09-12T10:06:40.226Z,1009.20
2023-09-12T10:07:40.115Z,1009.16
2023-09-12T10:08:40.547Z,1009.14
2023-09-12T10:09:40.108Z,1009.16
2023-09-12T10:10:40.152Z,1009.18
2023-09-12T10:11:40.074Z,1009.15
2023-09-12T10:12:40.189Z,1009.14
2023-09-12T10:13:40.250Z,1009.11
2023-09-12T10:14:40.103Z,1009.12
2023-09-12T10:15:40.094Z,1009.12
2023-09-12T10:16:40.225Z,1009.10
2023-09-12T10:17:40.010Z,1009.16
2023-09-12T10:18:40.153Z,1009.14
2023-09-12T10:19:40.010Z,1009.16
2023-09-12T10:20:40.033Z,1009.18
2023-09-12T10:21:40.054Z,1009.22
2023-09-12T10:22:40.076Z,1009.29
2023-09-12T10:23:39.945Z,1009.26
2023-09-12T10:24:40.023Z,1009.33
2023-09-12T10:25:39.923Z,1009.30
2023-09-12T10:26:39.998Z,1009.36
2023-09-12T10:27:39.961Z,1009.33
2023-09-12T10:28:39.955Z,1009.30
2023-09-12T10:29:39.882Z,1009.30
2023-09-12T10:30:39.955Z,1009.33
2023-09-12T10:31:39.907Z,1009.36
2023-09-12T10:32:39.951Z,1009.39
2023-09-12T10:33:39.873Z,1009.38
2023-09-12T10:34:39.891Z,1009.42
2023-09-12T10:35:39.820Z,1009.39
2023-09-12T10:36:39.889Z,1009.40
2023-09-12T10:37:39.800Z,1009.40
2023-09-12T10:38:39.844Z,1009.38
2023-09-12T10:39:39.813Z,1009.37
2023-09-12T10:40:43.569Z,1009.41
2023-09-12T10:41:39.780Z,1009.38
2023-09-12T10:42:39.814Z,1009.42
2023-09-12T10:43:39.731Z,1009.42
2023-09-12T10:44:39.771Z,1009.40
2023-09-12T10:45:39.770Z,1009.42
2023-09-12T10:46:39.761Z,1009.41
2023-09-12T10:47:39.832Z,1009.39
2023-09-12T10:48:39.764Z,1009.39
2023-09-12T10:49:39.679Z,1009.32
2023-09-12T10:50:39.709Z,1009.30
2023-09-12T10:51:39.696Z,1009.28
2023-09-12T10:52:39.969Z,1009.25
2023-09-12T10:53:39.631Z,1009.25
2023-09-12T10:54:39.777Z,1009.21
2023-09-12T10:55:39.606Z,1009.20
2023-09-12T10:56:39.653Z,1009.18
2023-09-12T10:57:39.621Z,1009.22
2023-09-12T10:58:39.624Z,1009.21
2023-09-12T10:59:39.565Z,1009.19
2023-09-12T11:00:39.701Z,1009.18
2023-09-12T11:01:39.607Z,1009.20
2023-09-12T11:02:39.670Z,1009.15
2023-09-12T11:03:39.699Z,1009.16
2023-09-12T11:04:39.566Z,1009.16
2023-09-12T11:05:39.498Z,1009.14
2023-09-12T11:06:39.673Z,1009.12
2023-09-12T11:07:39.486Z,1009.12
2023-09-12T11:08:39.542Z,1009.10
2023-09-12T11:09:39.494Z,1009.08
2023-09-12T11:10:39.498Z,1009.10
2023-09-12T11:11:39.437Z,1009.09
2023-09-12T11:12:39.558Z,1009.07
2023-09-12T11:13:39.417Z,1009.08
2023-09-12T11:14:39.463Z,1009.08
2023-09-12T11:15:39.430Z,1009.09
2023-09-12T11:16:39.462Z,1009.11
2023-09-12T11:17:39.415Z,1009.08
2023-09-12T11:18:39.429Z,1009.09
2023-09-12T11:19:39.353Z,1009.06
2023-09-12T11:20:39.399Z,1009.03
2023-09-12T11:21:39.353Z,1009.06
2023-09-12T11:22:39.375Z,1009.03
2023-09-12T11:23:39.311Z,1009.04
2023-09-12T11:24:39.418Z,1009.06
2023-09-12T11:25:39.295Z,1009.05
2023-09-12T11:26:39.357Z,1009.06
2023-09-12T11:27:39.297Z,1009.03
2023-09-12T11:28:39.319Z,1009.06
2023-09-12T11:29:39.252Z,1009.02
2023-09-12T11:30:39.390Z,1009.03
2023-09-12T11:31:39.293Z,1009.02
2023-09-12T11:32:39.466Z,1008.98
2023-09-12T11:33:39.386Z,1008.96
2023-09-12T11:34:39.328Z,1009.02
2023-09-12T11:35:39.235Z,1009.01
2023-09-12T11:36:39.278Z,1008.98
2023-09-12T11:37:39.226Z,1009.00
2023-09-12T11:38:39.226Z,1009.04
2023-09-12T11:39:39.167Z,1009.04
2023-09-12T11:40:39.216Z,1009.02
2023-09-12T11:41:39.128Z,1009.01
2023-09-12T11:42:39.218Z,1009.01
2023-09-12T11:43:39.104Z,1009.01
2023-09-12T11:44:39.176Z,1008.98
2023-09-12T11:45:39.119Z,1008.95
2023-09-12T11:46:39.163Z,1008.92
2023-09-12T11:47:39.124Z,1008.94
2023-09-12T11:48:39.152Z,1008.88
2023-09-12T11:49:39.063Z,1008.89
2023-09-12T11:50:39.096Z,1008.89
2023-09-12T11:51:39.025Z,1008.87
2023-09-12T11:52:39.356Z,1008.87
2023-09-12T11:53:39.051Z,1008.89
2023-09-12T11:54:39.258Z,1008.91
2023-09-12T11:55:38.974Z,1008.91
2023-09-12T11:56:39.018Z,1008.91
2023-09-12T11:57:38.965Z,1008.92
2023-09-12T11:58:39.135Z,1008.88
2023-09-12T11:59:38.939Z,1008.87
2023-09-12T12:00:39.197Z,1008.88
2023-09-12T12:01:38.934Z,1008.84
2023-09-12T12:02:38.972Z,1008.78
2023-09-12T12:03:39.006Z,1008.77
2023-09-12T12:04:39.093Z,1008.72
2023-09-12T12:05:39.569Z,1008.72
2023-09-12T12:06:38.917Z,1008.69